Time;durP1;ratioP1;P1;durP2;ratioP2;P2;SDS_P1;SDS_P2;PMS_P1;PMS_P2;Temp;Humidity;BMP_temperature;BMP_pressure;BME280_temperature;BME280_humidity;BME280_pressure;Samples;Min_cycle;Max_cycle;Signal;HPM_P1;HPM_P2
2024/01/08 00:02:06;;;;;;;6.23;3.17;;;-2.40;99.90;;;;;;5093370;28;20253;-82
2024/01/08 00:04:32;;;;;;;6.47;3.57;;;-2.40;99.90;;;;;;5082649;27;20309;-83
2024/01/08 00:06:59;;;;;;;5.67;3.77;;;-2.40;99.90;;;;;;5078435;28;20219;-82
2024/01/08 00:09:26;;;;;;;4.90;3.30;;;-2.40;99.90;;;;;;5070345;28;20222;-83
2024/01/08 00:11:52;;;;;;;4.87;3.20;;;-2.40;99.90;;;;;;5106675;27;20240;-82
2024/01/08 00:14:19;;;;;;;5.40;3.80;;;-2.40;99.90;;;;;;5107945;27;20212;-83
2024/01/08 00:16:47;;;;;;;4.33;3.67;;;-2.50;99.90;;;;;;5073745;28;20223;-83
2024/01/08 00:19:14;;;;;;;5.77;3.93;;;-2.40;99.90;;;;;;5074921;28;20226;-83
2024/01/08 00:21:42;;;;;;;6.67;3.60;;;-2.40;99.90;;;;;;5088947;28;20226;-83
2024/01/08 00:24:09;;;;;;;5.77;3.40;;;-2.40;99.90;;;;;;5076226;28;20328;-83
2024/01/08 00:26:37;;;;;;;7.23;4.67;;;-2.50;99.90;;;;;;5077241;28;20517;-82
2024/01/08 00:29:04;;;;;;;7.50;4.20;;;-2.40;99.90;;;;;;5077443;28;21082;-82
2024/01/08 00:31:31;;;;;;;5.00;3.90;;;-2.40;99.90;;;;;;5076361;28;20242;-83
2024/01/08 00:33:59;;;;;;;6.20;3.57;;;-2.40;99.90;;;;;;5082130;28;20988;-82
2024/01/08 00:36:26;;;;;;;7.37;3.93;;;-2.40;99.90;;;;;;5080975;28;20934;-82
2024/01/08 00:38:54;;;;;;;6.13;3.77;;;-2.40;99.90;;;;;;5111713;27;20244;-82
2024/01/08 00:41:20;;;;;;;8.07;3.63;;;-2.40;99.90;;;;;;5077858;28;20225;-81
2024/01/08 00:43:48;;;;;;;7.37;3.40;;;-2.40;99.90;;;;;;5077846;28;20308;-82
2024/01/08 00:46:15;;;;;;;9.10;3.80;;;-2.40;99.90;;;;;;5082623;28;20218;-82
2024/01/08 00:48:43;;;;;;;5.00;3.53;;;-2.40;99.90;;;;;;5076707;28;20641;-81
2024/01/08 00:51:11;;;;;;;4.40;3.50;;;-2.40;99.90;;;;;;5079141;28;20687;-81
2024/01/08 00:53:38;;;;;;;6.20;4.10;;;-2.40;99.90;;;;;;5092537;27;20242;-82
2024/01/08 00:56:05;;;;;;;7.60;3.80;;;-2.40;99.90;;;;;;5078998;27;20239;-81
2024/01/08 00:58:32;;;;;;;6.00;4.00;;;-2.40;99.90;;;;;;5076307;28;20433;-81
2024/01/08 01:00:59;;;;;;;8.60;4.30;;;-2.40;99.90;;;;;;5088226;28;20237;-81
2024/01/08 01:03:26;;;;;;;6.17;3.73;;;-2.40;99.90;;;;;;5072352;28;20219;-81
2024/01/08 01:05:53;;;;;;;5.43;3.67;;;-2.40;99.90;;;;;;5077696;28;20226;-82
2024/01/08 01:08:21;;;;;;;5.53;3.47;;;-2.40;99.90;;;;;;5076146;27;20226;-81
2024/01/08 01:10:48;;;;;;;7.13;3.77;;;-2.50;99.90;;;;;;5082426;28;20230;-81
2024/01/08 01:13:15;;;;;;;4.57;3.10;;;-2.50;99.90;;;;;;5102705;27;20235;-82
2024/01/08 01:15:43;;;;;;;4.93;3.17;;;-2.50;99.90;;;;;;5087034;27;20305;-81
2024/01/08 01:18:10;;;;;;;8.43;3.53;;;-2.50;99.90;;;;;;5111085;27;20225;-81
2024/01/08 01:20:36;;;;;;;6.07;3.40;;;-2.50;99.90;;;;;;5091396;28;20243;-81
2024/01/08 01:23:03;;;;;;;6.70;3.23;;;-2.50;99.90;;;;;;5099938;27;20232;-81
2024/01/08 01:25:32;;;;;;;3.63;3.00;;;-2.50;99.90;;;;;;5073315;28;20311;-81
2024/01/08 01:27:58;;;;;;;5.03;3.17;;;-2.50;99.90;;;;;;5078373;28;20223;-80
2024/01/08 01:30:25;;;;;;;4.77;3.10;;;-2.50;99.90;;;;;;5082325;27;20326;-81
2024/01/08 01:32:52;;;;;;;6.23;3.53;;;-2.50;99.90;;;;;;5075191;28;20294;-81
2024/01/08 01:35:19;;;;;;;5.77;3.50;;;-2.50;99.90;;;;;;5079151;28;20238;-81
2024/01/08 01:37:45;;;;;;;8.07;3.30;;;-2.50;99.90;;;;;;5078239;28;20707;-81
2024/01/08 01:40:13;;;;;;;5.97;3.20;;;-2.50;99.90;;;;;;5075648;28;20282;-81
2024/01/08 01:42:41;;;;;;;6.17;3.20;;;-2.50;99.90;;;;;;5079946;28;20223;-81
2024/01/08 01:45:08;;;;;;;4.23;2.87;;;-2.50;99.90;;;;;;5083406;28;20235;-81
2024/01/08 01:47:37;;;;;;;5.47;3.07;;;-2.50;99.90;;;;;;5076506;28;20252;-80
2024/01/08 01:50:04;;;;;;;4.93;3.27;;;-2.50;99.90;;;;;;5077677;28;20274;-81
2024/01/08 01:52:31;;;;;;;6.27;3.57;;;-2.50;99.90;;;;;;5092404;28;20248;-82
2024/01/08 01:54:57;;;;;;;4.90;2.93;;;-2.50;99.90;;;;;;5097197;27;20230;-81
2024/01/08 01:57:25;;;;;;;5.83;3.40;;;-2.50;99.90;;;;;;5074372;28;20246;-80
2024/01/08 01:59:53;;;;;;;4.10;3.00;;;-2.50;99.90;;;;;;5089437;28;20318;-81
2024/01/08 02:02:21;;;;;;;6.23;3.53;;;-2.50;99.90;;;;;;5078385;27;20342;-80
2024/01/08 02:04:48;;;;;;;5.83;3.13;;;-2.50;99.90;;;;;;5077423;28;20215;-81
2024/01/08 02:07:16;;;;;;;6.67;3.30;;;-2.60;99.90;;;;;;5082560;27;20258;-82
2024/01/08 02:09:43;;;;;;;4.73;3.33;;;-2.50;99.90;;;;;;5111966;27;20310;-82
2024/01/08 02:12:10;;;;;;;6.17;3.53;;;-2.50;99.90;;;;;;5079389;27;20225;-82
2024/01/08 02:14:37;;;;;;;5.00;3.40;;;-2.50;99.90;;;;;;5078941;28;20900;-81
2024/01/08 02:17:05;;;;;;;6.20;3.17;;;-2.50;99.90;;;;;;5081598;28;20235;-82
2024/01/08 02:19:32;;;;;;;7.80;3.50;;;-2.50;99.90;;;;;;5086390;28;20848;-81
2024/01/08 02:21:59;;;;;;;5.30;3.40;;;-2.50;99.90;;;;;;5090197;28;20228;-81
2024/01/08 02:24:29;;;;;;;5.40;3.00;;;-2.50;99.90;;;;;;5074222;28;20278;-83
2024/01/08 02:26:58;;;;;;;6.20;3.37;;;-2.50;99.90;;;;;;5079477;28;20236;-82
2024/01/08 02:29:25;;;;;;;4.93;3.30;;;-2.60;99.90;;;;;;5082770;27;21065;-80
2024/01/08 02:31:52;;;;;;;7.53;3.13;;;-2.50;99.90;;;;;;5087884;28;20271;-81
2024/01/08 02:34:18;;;;;;;5.30;2.50;;;-2.50;99.90;;;;;;5083073;28;20317;-82
2024/01/08 02:36:45;;;;;;;3.77;2.53;;;-2.50;99.90;;;;;;5088549;27;20298;-82
2024/01/08 02:39:12;;;;;;;3.97;2.33;;;-2.50;99.90;;;;;;5072985;27;20272;-81
2024/01/08 02:41:41;;;;;;;3.50;2.70;;;-2.50;99.90;;;;;;5072943;28;20970;-82
2024/01/08 02:44:08;;;;;;;4.97;2.63;;;-2.50;99.90;;;;;;5083870;28;20283;-81
2024/01/08 02:46:35;;;;;;;3.97;2.23;;;-2.50;99.90;;;;;;5085468;28;20230;-82
2024/01/08 02:49:01;;;;;;;3.80;2.20;;;-2.50;99.90;;;;;;5073862;28;20222;-82
2024/01/08 02:51:28;;;;;;;4.03;2.50;;;-2.40;99.90;;;;;;5087364;28;20237;-82
2024/01/08 02:53:55;;;;;;;4.93;2.17;;;-2.40;99.90;;;;;;5081179;27;20253;-82
2024/01/08 02:56:23;;;;;;;3.27;2.27;;;-2.50;99.90;;;;;;5077386;27;20386;-81
2024/01/08 02:58:51;;;;;;;2.93;1.97;;;-2.40;99.90;;;;;;5081023;28;20221;-81
2024/01/08 03:01:18;;;;;;;6.13;3.07;;;-2.40;99.90;;;;;;5079613;28;20319;-81
2024/01/08 03:03:45;;;;;;;7.50;5.30;;;-2.40;99.90;;;;;;5083008;27;20789;-81
2024/01/08 03:06:12;;;;;;;4.03;2.50;;;-2.40;99.90;;;;;;5075454;28;20278;-81
2024/01/08 03:08:38;;;;;;;3.63;2.30;;;-2.30;99.90;;;;;;5078046;28;20223;-82
2024/01/08 03:11:05;;;;;;;5.17;2.70;;;-2.30;99.90;;;;;;5077787;28;20275;-81
2024/01/08 03:13:32;;;;;;;4.43;2.03;;;-2.30;99.90;;;;;;5105796;27;20304;-80
2024/01/08 03:16:01;;;;;;;6.13;2.80;;;-2.30;99.90;;;;;;5114403;27;20973;-81
2024/01/08 03:18:28;;;;;;;4.23;2.27;;;-2.30;99.90;;;;;;5083037;27;20250;-82
2024/01/08 03:20:54;;;;;;;4.13;2.23;;;-2.20;99.90;;;;;;5078092;28;20284;-81
2024/01/08 03:23:21;;;;;;;4.07;2.40;;;-2.20;99.90;;;;;;5063921;27;20436;-82
2024/01/08 03:25:48;;;;;;;8.40;7.60;;;-2.20;99.90;;;;;;5076246;28;20265;-81
2024/01/08 03:28:15;;;;;;;5.83;4.50;;;-2.20;99.90;;;;;;5074307;28;20223;-81
2024/01/08 03:30:42;;;;;;;6.87;6.17;;;-2.20;99.90;;;;;;5075941;28;20226;-81
2024/01/08 03:33:11;;;;;;;7.43;4.97;;;-2.20;99.90;;;;;;5124724;27;20324;-81
2024/01/08 03:35:38;;;;;;;6.10;4.20;;;-2.20;99.90;;;;;;5087617;28;20897;-81
2024/01/08 03:38:06;;;;;;;5.77;4.53;;;-2.20;99.90;;;;;;5079324;27;20970;-81
2024/01/08 03:40:33;;;;;;;16.63;8.50;;;-2.20;99.90;;;;;;5078604;27;20230;-82
2024/01/08 03:43:01;;;;;;;5.47;2.67;;;-2.20;99.90;;;;;;5079614;28;20217;-82
2024/01/08 03:45:27;;;;;;;55.53;20.57;;;-2.10;99.90;;;;;;5078332;27;20652;-83
2024/01/08 03:47:54;;;;;;;27.40;10.50;;;-2.10;99.90;;;;;;5078573;28;20834;-81
2024/01/08 03:50:23;;;;;;;5.20;2.20;;;-2.10;99.90;;;;;;5079320;28;20223;-82
2024/01/08 03:52:50;;;;;;;6.03;3.70;;;-2.10;99.90;;;;;;5074154;28;20302;-83
2024/01/08 03:55:17;;;;;;;6.20;2.30;;;-2.10;99.90;;;;;;5070269;28;20309;-81
2024/01/08 03:57:44;;;;;;;10.37;5.23;;;-2.10;99.90;;;;;;5076823;28;20652;-82
2024/01/08 04:00:12;;;;;;;22.20;10.17;;;-2.10;99.90;;;;;;5095139;28;20237;-82
2024/01/08 04:02:40;;;;;;;5.37;3.00;;;-2.10;99.90;;;;;;5080653;28;20219;-81
2024/01/08 04:05:09;;;;;;;5.67;2.87;;;-2.10;99.90;;;;;;5075989;28;20230;-81
2024/01/08 04:07:37;;;;;;;5.57;2.77;;;-2.10;99.90;;;;;;5077239;28;20223;-81
2024/01/08 04:10:05;;;;;;;4.67;2.80;;;-2.10;99.90;;;;;;5092496;28;20934;-82
2024/01/08 04:12:32;;;;;;;6.23;2.03;;;-2.10;99.90;;;;;;5090714;28;20229;-82
2024/01/08 04:14:59;;;;;;;4.80;2.37;;;-2.10;99.90;;;;;;5089025;28;20246;-81
2024/01/08 04:17:26;;;;;;;4.27;1.97;;;-2.10;99.90;;;;;;5071079;28;20251;-82
2024/01/08 04:19:53;;;;;;;5.13;2.43;;;-2.10;99.90;;;;;;5070642;28;20279;-82
2024/01/08 04:22:20;;;;;;;4.47;2.20;;;-2.10;99.90;;;;;;5107317;27;20302;-81
2024/01/08 04:24:48;;;;;;;9.40;5.50;;;-2.10;99.90;;;;;;5073828;28;20234;-82
2024/01/08 04:27:14;;;;;;;3.90;2.10;;;-2.10;99.90;;;;;;5078098;28;20226;-82
2024/01/08 04:29:41;;;;;;;5.07;2.90;;;-2.10;99.90;;;;;;5091919;27;20238;-83
2024/01/08 04:32:08;;;;;;;7.27;3.00;;;-2.10;99.90;;;;;;5094516;27;20226;-82
2024/01/08 04:34:35;;;;;;;4.57;2.30;;;-2.10;99.90;;;;;;5089491;28;20239;-83
2024/01/08 04:37:01;;;;;;;4.47;2.07;;;-2.00;99.90;;;;;;5092594;28;20333;-82
2024/01/08 04:39:28;;;;;;;6.50;3.00;;;-2.00;99.90;;;;;;5093005;28;20581;-83
2024/01/08 04:41:57;;;;;;;3.27;2.00;;;-2.00;99.90;;;;;;5086856;28;20271;-82
2024/01/08 04:44:24;;;;;;;5.17;2.60;;;-2.00;99.90;;;;;;5090425;27;20309;-82
2024/01/08 04:46:51;;;;;;;5.73;2.50;;;-2.10;99.90;;;;;;5094284;28;20245;-82
2024/01/08 04:49:17;;;;;;;6.90;2.27;;;-2.00;99.90;;;;;;5075522;28;20295;-82
2024/01/08 04:51:44;;;;;;;3.07;2.10;;;-2.00;99.90;;;;;;5093198;27;20249;-82
2024/01/08 04:54:11;;;;;;;3.73;1.73;;;-2.00;99.90;;;;;;5107605;27;20891;-81
2024/01/08 04:56:37;;;;;;;4.00;2.13;;;-2.00;99.90;;;;;;5097781;28;20283;-82
2024/01/08 04:59:06;;;;;;;6.13;2.97;;;-2.00;99.90;;;;;;5106192;27;20323;-81
2024/01/08 05:01:37;;;;;;;3.50;2.00;;;-2.00;99.90;;;;;;5078995;28;20980;-83
2024/01/08 05:04:04;;;;;;;3.67;1.97;;;-2.00;99.90;;;;;;5079913;28;20896;-82
2024/01/08 05:06:31;;;;;;;2.33;1.57;;;-1.90;99.90;;;;;;5081978;28;20279;-83
2024/01/08 05:08:58;;;;;;;1.93;1.67;;;-2.00;99.90;;;;;;5085595;28;20307;-81
2024/01/08 05:11:25;;;;;;;3.00;1.60;;;-1.90;99.90;;;;;;5112864;27;20330;-83
2024/01/08 05:13:52;;;;;;;3.97;1.53;;;-1.90;99.90;;;;;;5079208;28;20226;-82
2024/01/08 05:16:20;;;;;;;2.70;1.50;;;-1.90;99.90;;;;;;5079604;28;20219;-84
2024/01/08 05:18:46;;;;;;;2.83;1.50;;;-1.90;99.90;;;;;;5087844;28;20226;-82
2024/01/08 05:21:14;;;;;;;1.97;1.43;;;-1.80;99.90;;;;;;5084561;28;20753;-83
2024/01/08 05:23:41;;;;;;;2.57;1.57;;;-1.80;99.90;;;;;;5095920;28;20645;-81
2024/01/08 05:26:08;;;;;;;2.77;1.57;;;-1.80;99.90;;;;;;5099676;27;20229;-81
2024/01/08 05:28:35;;;;;;;2.23;1.83;;;-1.80;99.90;;;;;;5087605;28;20222;-81
2024/01/08 05:31:02;;;;;;;2.80;1.80;;;-1.80;99.90;;;;;;5118588;27;20248;-82
2024/01/08 05:33:30;;;;;;;2.10;1.70;;;-1.80;99.90;;;;;;5082374;28;20781;-80
2024/01/08 05:35:57;;;;;;;2.63;1.60;;;-1.80;99.90;;;;;;5075112;28;20313;-81
2024/01/08 05:38:25;;;;;;;1.53;1.40;;;-1.70;99.90;;;;;;5086099;28;20242;-81
2024/01/08 05:40:55;;;;;;;2.83;1.70;;;-1.80;99.90;;;;;;5081536;27;20280;-83
2024/01/08 05:43:22;;;;;;;2.13;1.63;;;-1.70;99.90;;;;;;5078964;27;20237;-83
2024/01/08 05:45:49;;;;;;;2.93;2.10;;;-1.70;99.90;;;;;;5086095;28;20317;-82
2024/01/08 05:48:16;;;;;;;2.50;1.70;;;-1.70;99.90;;;;;;5080941;28;20769;-81
2024/01/08 05:50:44;;;;;;;3.47;1.57;;;-1.70;99.90;;;;;;5101411;27;20283;-83
2024/01/08 05:53:11;;;;;;;2.50;1.53;;;-1.70;99.90;;;;;;5080773;28;20500;-81
2024/01/08 05:55:37;;;;;;;2.43;1.77;;;-1.70;99.90;;;;;;5093296;28;20242;-83
2024/01/08 05:58:04;;;;;;;2.27;1.67;;;-1.70;99.90;;;;;;5085861;28;20303;-83
2024/01/08 06:00:31;;;;;;;2.43;1.90;;;-1.60;99.90;;;;;;5084028;28;20241;-83
2024/01/08 06:02:58;;;;;;;2.07;1.73;;;-1.60;99.90;;;;;;5084985;28;20227;-83
2024/01/08 06:05:25;;;;;;;2.07;1.70;;;-1.60;99.90;;;;;;5087386;27;20883;-82
2024/01/08 06:07:54;;;;;;;5.20;2.10;;;-1.60;99.90;;;;;;5084840;28;20229;-83
2024/01/08 06:10:21;;;;;;;5.10;2.00;;;-1.60;99.90;;;;;;5080204;28;20707;-84
2024/01/08 06:12:48;;;;;;;3.00;1.90;;;-1.60;99.90;;;;;;5074708;28;20309;-83
2024/01/08 06:15:15;;;;;;;3.70;1.80;;;-1.60;99.90;;;;;;5070411;28;20323;-83
2024/01/08 06:17:44;;;;;;;3.87;1.90;;;-1.60;99.90;;;;;;5089000;28;20219;-84
2024/01/08 06:20:12;;;;;;;3.90;1.80;;;-1.60;99.90;;;;;;5078256;27;20239;-84
2024/01/08 06:22:39;;;;;;;2.90;1.87;;;-1.60;99.90;;;;;;5108350;27;20308;-83
2024/01/08 06:25:08;;;;;;;3.03;1.73;;;-1.60;99.90;;;;;;5089452;28;20633;-83
2024/01/08 06:27:36;;;;;;;5.70;2.20;;;-1.60;99.90;;;;;;5120308;27;20308;-85
2024/01/08 06:30:03;;;;;;;3.20;1.83;;;-1.60;99.90;;;;;;5078360;28;20225;-83
2024/01/08 06:32:30;;;;;;;2.77;2.07;;;-1.60;99.90;;;;;;5084833;27;20233;-84
2024/01/08 06:34:57;;;;;;;3.80;2.03;;;-1.70;99.90;;;;;;5083334;28;20243;-85
2024/01/08 06:37:24;;;;;;;3.13;2.03;;;-1.60;99.90;;;;;;5083004;28;20271;-84
2024/01/08 06:39:51;;;;;;;2.50;1.83;;;-1.70;99.90;;;;;;5091957;28;20230;-83
2024/01/08 06:42:19;;;;;;;2.53;1.80;;;-1.70;99.90;;;;;;5079974;28;20326;-84
2024/01/08 06:44:46;;;;;;;3.13;2.10;;;-1.70;99.90;;;;;;5082316;28;20222;-84
2024/01/08 06:47:13;;;;;;;4.23;2.33;;;-1.70;99.90;;;;;;5102277;28;20220;-84
2024/01/08 06:49:40;;;;;;;4.73;2.20;;;-1.70;99.90;;;;;;5120394;27;20217;-84
2024/01/08 06:52:08;;;;;;;2.43;1.83;;;-1.70;99.90;;;;;;5101537;28;20784;-84
2024/01/08 06:54:35;;;;;;;2.50;1.97;;;-1.70;99.90;;;;;;5104350;27;21060;-83
2024/01/08 06:57:02;;;;;;;2.37;1.80;;;-1.70;99.90;;;;;;5100931;28;20890;-84
2024/01/08 06:59:31;;;;;;;2.40;1.90;;;-1.70;99.90;;;;;;5102437;28;20225;-84
2024/01/08 07:01:57;;;;;;;3.37;2.40;;;-1.70;99.90;;;;;;5084372;28;20225;-84
2024/01/08 07:04:24;;;;;;;2.93;2.07;;;-1.70;99.90;;;;;;5065037;28;20223;-81
2024/01/08 07:06:51;;;;;;;3.27;2.73;;;-1.70;99.90;;;;;;5082070;28;20273;-82
2024/01/08 07:09:17;;;;;;;2.67;1.97;;;-1.70;99.90;;;;;;5093848;28;20416;-83
2024/01/08 07:11:44;;;;;;;3.83;1.90;;;-1.70;99.90;;;;;;5075638;28;20228;-81
2024/01/08 07:14:11;;;;;;;3.80;2.03;;;-1.80;99.90;;;;;;5074563;28;20308;-83
2024/01/08 07:16:39;;;;;;;3.93;2.20;;;-1.70;99.90;;;;;;5075769;28;20222;-81
2024/01/08 07:19:06;;;;;;;3.63;2.20;;;-1.80;99.90;;;;;;5075704;28;20310;-83
2024/01/08 07:21:33;;;;;;;4.97;2.53;;;-1.70;99.90;;;;;;5064897;28;20784;-82
2024/01/08 07:23:59;;;;;;;5.67;2.50;;;-1.70;99.90;;;;;;5082863;28;20218;-83
2024/01/08 07:26:26;;;;;;;5.87;2.20;;;-1.70;99.90;;;;;;5078941;28;20308;-82
2024/01/08 07:28:53;;;;;;;3.30;2.23;;;-1.70;99.90;;;;;;5087580;28;20808;-82
2024/01/08 07:31:20;;;;;;;3.80;2.33;;;-1.70;99.90;;;;;;5088698;28;20261;-81
2024/01/08 07:33:48;;;;;;;4.33;2.60;;;-1.70;99.90;;;;;;5094744;28;20676;-82
2024/01/08 07:36:15;;;;;;;3.80;2.37;;;-1.70;99.90;;;;;;5107965;28;20250;-82
2024/01/08 07:38:42;;;;;;;4.37;2.20;;;-1.70;99.90;;;;;;5109308;28;20221;-78
2024/01/08 07:41:08;;;;;;;19.23;3.27;;;-1.70;99.90;;;;;;5102101;28;20249;-82
2024/01/08 07:43:37;;;;;;;6.70;2.73;;;-1.70;99.90;;;;;;5099587;28;20340;-82
2024/01/08 07:46:04;;;;;;;3.47;2.30;;;-1.70;99.90;;;;;;5090580;28;20241;-81
2024/01/08 07:48:31;;;;;;;4.10;2.50;;;-1.60;99.90;;;;;;5092465;28;20912;-85
2024/01/08 07:51:01;;;;;;;3.60;2.33;;;-1.70;99.90;;;;;;5106073;27;20232;-85
2024/01/08 07:53:28;;;;;;;3.77;2.37;;;-1.70;99.90;;;;;;5106031;28;20254;-82
2024/01/08 07:55:55;;;;;;;3.70;2.40;;;-1.70;99.90;;;;;;5103949;28;20742;-81
2024/01/08 07:58:21;;;;;;;4.70;2.33;;;-1.70;99.90;;;;;;5101060;28;20249;-81
2024/01/08 08:00:48;;;;;;;4.27;2.20;;;-1.70;99.90;;;;;;5118367;28;20305;-84
2024/01/08 08:03:15;;;;;;;3.67;2.13;;;-1.70;99.90;;;;;;5085884;28;20246;-80
2024/01/08 08:05:42;;;;;;;3.67;2.20;;;-1.80;99.90;;;;;;5091134;28;20246;-79
2024/01/08 08:08:10;;;;;;;4.77;2.63;;;-1.80;99.90;;;;;;5091140;28;20264;-83
2024/01/08 08:10:36;;;;;;;3.60;2.10;;;-1.80;99.90;;;;;;5101966;27;20697;-83
2024/01/08 08:13:06;;;;;;;5.83;2.40;;;-1.80;99.90;;;;;;5087320;28;20246;-87
2024/01/08 08:15:33;;;;;;;3.83;2.53;;;-1.70;99.90;;;;;;5098806;27;20222;-86
2024/01/08 08:18:00;;;;;;;2.60;1.97;;;-1.80;99.90;;;;;;5079928;28;20229;-82
2024/01/08 08:20:27;;;;;;;4.30;2.33;;;-1.80;99.90;;;;;;5078481;28;20227;-85
2024/01/08 08:22:54;;;;;;;3.63;2.30;;;-1.80;99.90;;;;;;5080923;28;20225;-85
2024/01/08 08:25:22;;;;;;;3.53;2.60;;;-1.80;99.90;;;;;;5099268;27;20229;-84
2024/01/08 08:27:50;;;;;;;3.70;2.50;;;-1.80;99.90;;;;;;5107645;27;20227;-84
2024/01/08 08:30:19;;;;;;;3.17;2.37;;;-1.80;99.90;;;;;;5082064;27;20230;-84
2024/01/08 08:32:50;;;;;;;4.40;2.37;;;-1.80;99.90;;;;;;5072991;28;20222;-83
2024/01/08 08:35:17;;;;;;;3.97;2.27;;;-1.80;99.90;;;;;;5074060;28;20296;-83
2024/01/08 08:37:45;;;;;;;4.03;2.40;;;-1.80;99.90;;;;;;5099255;27;20915;-83
2024/01/08 08:40:12;;;;;;;3.63;2.30;;;-1.70;99.90;;;;;;5093610;27;20232;-85
2024/01/08 08:42:41;;;;;;;4.23;2.80;;;-1.80;99.90;;;;;;5074198;28;20229;-83
2024/01/08 08:45:09;;;;;;;3.93;2.13;;;-1.80;99.90;;;;;;5085356;27;20215;-84
2024/01/08 08:47:38;;;;;;;5.63;2.80;;;-1.80;99.90;;;;;;5085823;28;20735;-83
2024/01/08 08:50:06;;;;;;;4.37;2.83;;;-1.80;99.90;;;;;;5084472;27;20230;-84
2024/01/08 08:52:33;;;;;;;3.73;2.67;;;-1.70;99.90;;;;;;5084431;28;20386;-84
2024/01/08 08:55:00;;;;;;;3.67;2.80;;;-1.70;99.90;;;;;;5080142;28;20229;-85
2024/01/08 08:57:27;;;;;;;4.80;2.60;;;-1.70;99.90;;;;;;5073717;28;20288;-83
2024/01/08 08:59:56;;;;;;;3.13;2.27;;;-1.70;99.90;;;;;;5087810;28;20226;-83
2024/01/08 09:02:23;;;;;;;3.47;2.43;;;-1.70;99.90;;;;;;5081771;28;20219;-85
2024/01/08 09:04:51;;;;;;;3.97;2.40;;;-1.60;99.90;;;;;;5080077;28;20234;-84
2024/01/08 09:07:22;;;;;;;4.23;2.67;;;-1.60;99.90;;;;;;5083507;28;20223;-83
2024/01/08 09:09:49;;;;;;;4.47;2.53;;;-1.60;99.90;;;;;;5081256;28;20224;-82
2024/01/08 09:12:16;;;;;;;5.40;2.47;;;-1.60;99.90;;;;;;5075248;28;20913;-82
2024/01/08 09:14:44;;;;;;;3.43;2.37;;;-1.60;99.90;;;;;;5084501;28;20226;-83
2024/01/08 09:17:12;;;;;;;4.10;2.50;;;-1.60;99.90;;;;;;5111011;27;20315;-84
2024/01/08 09:19:40;;;;;;;7.13;2.93;;;-1.60;99.90;;;;;;5120525;27;20316;-83
2024/01/08 09:22:07;;;;;;;3.17;2.40;;;-1.60;99.90;;;;;;5117898;27;20251;-84
2024/01/08 09:24:34;;;;;;;4.53;2.63;;;-1.50;99.90;;;;;;5102312;28;20316;-85
2024/01/08 09:27:02;;;;;;;4.37;2.50;;;-1.50;99.90;;;;;;5083446;28;20224;-84
2024/01/08 09:29:29;;;;;;;4.53;2.73;;;-1.50;99.90;;;;;;5087975;28;20230;-82
2024/01/08 09:31:56;;;;;;;3.40;2.20;;;-1.50;99.90;;;;;;5080493;28;20222;-84
2024/01/08 09:34:25;;;;;;;3.47;2.20;;;-1.40;99.90;;;;;;5078437;28;20218;-84
2024/01/08 09:36:52;;;;;;;4.07;2.27;;;-1.40;99.90;;;;;;5073502;28;20221;-84
2024/01/08 09:39:20;;;;;;;3.97;2.13;;;-1.40;99.90;;;;;;5086296;27;20220;-84
2024/01/08 09:41:49;;;;;;;3.57;1.90;;;-1.40;99.90;;;;;;5079964;28;20239;-84
2024/01/08 09:44:16;;;;;;;2.77;2.23;;;-1.40;99.90;;;;;;5095221;28;20689;-82
2024/01/08 09:46:50;;;;;;;3.30;2.07;;;-1.40;99.90;;;;;;5090826;28;20280;-84
2024/01/08 09:49:20;;;;;;;3.60;1.80;;;-1.30;99.90;;;;;;5114663;27;20237;-84
2024/01/08 09:51:48;;;;;;;4.90;2.33;;;-1.40;99.90;;;;;;5081108;28;20360;-83
2024/01/08 09:54:18;;;;;;;4.00;2.37;;;-1.30;99.90;;;;;;5102378;27;20325;-84
2024/01/08 09:56:50;;;;;;;4.13;2.17;;;-1.40;99.90;;;;;;5084923;28;20234;-84
2024/01/08 09:59:17;;;;;;;3.00;2.10;;;-1.40;99.90;;;;;;5083821;28;20771;-83
2024/01/08 10:01:44;;;;;;;3.13;2.10;;;-1.40;99.90;;;;;;5105506;27;20316;-83
2024/01/08 10:04:12;;;;;;;2.80;1.97;;;-1.40;99.90;;;;;;5073882;28;20713;-84
2024/01/08 10:06:39;;;;;;;2.73;2.00;;;-1.40;99.90;;;;;;5075696;28;20288;-82
2024/01/08 10:09:08;;;;;;;2.87;1.93;;;-1.40;99.90;;;;;;5077384;28;20226;-83
2024/01/08 10:11:35;;;;;;;2.77;1.87;;;-1.40;99.90;;;;;;5068446;28;20271;-83
2024/01/08 10:14:05;;;;;;;3.33;1.80;;;-1.40;99.90;;;;;;5113819;27;20765;-88
2024/01/08 10:16:37;;;;;;;3.77;2.07;;;-1.40;99.90;;;;;;5069779;27;20230;-85
2024/01/08 10:19:04;;;;;;;4.93;2.30;;;-1.40;99.90;;;;;;5116386;27;20231;-84
2024/01/08 10:21:31;;;;;;;3.57;2.20;;;-1.40;99.90;;;;;;5089172;28;20793;-84
2024/01/08 10:24:10;;;;;;;3.50;2.20;;;-1.40;99.90;;;;;;5086084;28;20250;-84
2024/01/08 10:26:38;;;;;;;3.90;2.13;;;-1.40;99.90;;;;;;5071987;28;20247;-83
2024/01/08 10:29:05;;;;;;;2.50;2.07;;;-1.30;99.90;;;;;;5085850;27;20311;-85
2024/01/08 10:31:33;;;;;;;3.07;1.90;;;-1.20;99.90;;;;;;5094512;27;20280;-83
2024/01/08 10:34:04;;;;;;;3.57;2.20;;;-1.10;99.90;;;;;;5078672;28;20229;-85
2024/01/08 10:36:40;;;;;;;3.07;2.20;;;-1.00;99.90;;;;;;5081823;27;20231;-85
2024/01/08 10:39:11;;;;;;;4.00;2.30;;;-1.00;99.90;;;;;;5087869;28;20586;-86
2024/01/08 10:41:38;;;;;;;4.13;2.03;;;-0.90;99.90;;;;;;5122716;27;20311;-85
2024/01/08 10:44:05;;;;;;;2.80;2.00;;;-0.90;99.90;;;;;;5108512;27;20238;-85
2024/01/08 10:46:39;;;;;;;4.83;2.07;;;-0.90;99.90;;;;;;5094906;28;20689;-86
2024/01/08 10:49:15;;;;;;;4.60;2.30;;;-0.80;99.90;;;;;;5096188;28;20240;-85
2024/01/08 10:51:45;;;;;;;3.67;2.10;;;-0.80;99.90;;;;;;5070033;28;20237;-85
2024/01/08 10:54:17;;;;;;;2.53;1.90;;;-0.80;99.90;;;;;;5087701;28;20293;-85
2024/01/08 10:56:46;;;;;;;4.63;2.10;;;-0.70;99.90;;;;;;5083969;28;20918;-85
2024/01/08 10:59:21;;;;;;;3.23;1.90;;;-0.70;99.90;;;;;;5094976;28;20272;-84
2024/01/08 11:01:48;;;;;;;2.83;2.00;;;-0.70;99.90;;;;;;5095080;28;20246;-86
2024/01/08 11:04:15;;;;;;;3.43;2.00;;;-0.70;99.90;;;;;;5072938;28;20759;-85
2024/01/08 11:06:43;;;;;;;5.80;2.63;;;-0.70;99.90;;;;;;5110524;27;20223;-87
2024/01/08 11:09:24;;;;;;;2.93;1.90;;;-0.70;99.90;;;;;;5074597;27;20303;-86
2024/01/08 11:11:51;;;;;;;3.07;1.80;;;-0.70;99.90;;;;;;5081732;28;20216;-84
2024/01/08 11:14:18;;;;;;;3.57;2.37;;;-0.60;99.90;;;;;;5107265;27;20226;-85
2024/01/08 11:16:45;;;;;;;3.00;2.07;;;-0.60;99.90;;;;;;5078592;28;20310;-84
2024/01/08 11:19:27;;;;;;;4.90;2.30;;;-0.60;99.90;;;;;;5089592;28;20237;-84
2024/01/08 11:22:10;;;;;;;5.00;2.53;;;-0.60;99.90;;;;;;5084205;28;20226;-86
2024/01/08 11:24:39;;;;;;;3.50;2.30;;;-0.60;99.90;;;;;;5077758;28;20291;-86
2024/01/08 11:27:06;;;;;;;2.70;1.93;;;-0.60;99.90;;;;;;5070809;28;20228;-87
2024/01/08 11:29:33;;;;;;;3.03;1.77;;;-0.50;99.90;;;;;;5081320;28;20265;-85
2024/01/08 11:32:57;;;;;;;2.63;1.40;;;-0.50;99.90;;;;;;5076748;28;20326;-86
2024/01/08 11:35:29;;;;;;;4.30;1.90;;;-0.50;99.90;;;;;;5054137;28;20243;-83
2024/01/08 11:38:21;;;;;;;3.13;1.60;;;-0.50;99.90;;;;;;5089505;28;20226;-83
2024/01/08 11:40:49;;;;;;;4.33;1.83;;;-0.50;99.90;;;;;;5082986;28;20222;-83
2024/01/08 11:43:18;;;;;;;3.50;1.70;;;-0.50;99.90;;;;;;5088383;28;20578;-82
2024/01/08 11:45:45;;;;;;;2.10;1.50;;;-0.50;99.90;;;;;;5089481;28;20607;-82
2024/01/08 11:48:12;;;;;;;3.27;1.80;;;-0.50;99.90;;;;;;5088828;28;20250;-81
2024/01/08 11:50:41;;;;;;;4.40;2.00;;;-0.50;99.90;;;;;;5087410;28;20226;-82
2024/01/08 11:53:10;;;;;;;1.77;1.40;;;-0.40;99.90;;;;;;5082520;28;20226;-82
2024/01/08 11:55:37;;;;;;;4.63;1.63;;;-0.50;99.90;;;;;;5082505;28;20568;-83
2024/01/08 11:58:05;;;;;;;3.20;1.60;;;-0.50;99.90;;;;;;5075307;28;20227;-83
2024/01/08 12:00:32;;;;;;;3.80;1.90;;;-0.50;99.90;;;;;;5073684;28;20321;-83
2024/01/08 12:03:02;;;;;;;4.50;1.53;;;-0.60;99.90;;;;;;5082949;28;20260;-83
2024/01/08 12:05:29;;;;;;;2.93;1.80;;;-0.60;99.90;;;;;;5085357;28;20227;-84
2024/01/08 12:07:56;;;;;;;3.27;1.50;;;-0.70;99.90;;;;;;5075198;28;20226;-83
2024/01/08 12:10:23;;;;;;;1.70;1.53;;;-0.70;99.90;;;;;;5074876;28;20238;-84
2024/01/08 12:12:50;;;;;;;4.50;2.27;;;-0.70;99.90;;;;;;5091409;28;20221;-84
2024/01/08 12:15:18;;;;;;;4.10;1.90;;;-0.60;99.90;;;;;;5104589;27;20227;-85
2024/01/08 12:17:45;;;;;;;3.30;1.60;;;-0.60;99.90;;;;;;5086740;28;20240;-84
2024/01/08 12:20:12;;;;;;;3.13;1.93;;;-0.50;99.90;;;;;;5100829;27;20321;-84
2024/01/08 12:22:38;;;;;;;3.13;1.63;;;-0.50;99.90;;;;;;5082098;28;20226;-84
2024/01/08 12:25:08;;;;;;;3.93;2.00;;;-0.50;99.90;;;;;;5083887;28;20219;-81
2024/01/08 12:27:35;;;;;;;4.63;2.30;;;-0.50;99.90;;;;;;5077553;28;20226;-86
2024/01/08 12:30:03;;;;;;;3.73;1.90;;;-0.50;99.90;;;;;;5074397;28;20224;-87
2024/01/08 12:32:31;;;;;;;2.60;1.83;;;-0.50;99.90;;;;;;5093252;27;20229;-85
2024/01/08 12:35:00;;;;;;;2.57;1.63;;;-0.50;99.90;;;;;;5104972;27;20276;-87
2024/01/08 12:37:32;;;;;;;2.87;1.80;;;-0.50;99.90;;;;;;5067721;27;20231;-86
2024/01/08 12:39:59;;;;;;;2.70;1.80;;;-0.50;99.90;;;;;;5093150;28;20319;-86
2024/01/08 12:42:26;;;;;;;3.87;1.83;;;-0.50;99.90;;;;;;5086395;28;20253;-86
2024/01/08 12:44:55;;;;;;;2.93;1.80;;;-0.50;99.90;;;;;;5106430;28;20224;-84
2024/01/08 12:47:22;;;;;;;3.70;2.00;;;-0.50;99.90;;;;;;5087315;28;20243;-84
2024/01/08 12:49:50;;;;;;;2.90;2.00;;;-0.40;99.90;;;;;;5079304;28;20256;-86